sensor_id;sensor_type;location;lat;lon;timestamp;P1;durP1;ratioP1;P2;durP2;ratioP2
43413;SDS011;29013;49.676;8.606;2023-08-31T00:01:38;1.55;;;1.19;;
43413;SDS011;29013;49.676;8.606;2023-08-31T00:07:01;3.27;;;1.34;;
43413;SDS011;29013;49.676;8.606;2023-08-31T00:12:27;1.7;;;1.15;;
43413;SDS011;29013;49.676;8.606;2023-08-31T00:17:50;2.49;;;1.28;;
43413;SDS011;29013;49.676;8.606;2023-08-31T00:23:39;3.2;;;1.53;;
43413;SDS011;29013;49.676;8.606;2023-08-31T00:29:01;3.57;;;1.44;;
43413;SDS011;29013;49.676;8.606;2023-08-31T00:34:41;2.61;;;1.5;;
43413;SDS011;29013;49.676;8.606;2023-08-31T00:40:05;1.72;;;1.23;;
43413;SDS011;29013;49.676;8.606;2023-08-31T00:45:27;1.62;;;1.18;;
43413;SDS011;29013;49.676;8.606;2023-08-31T00:50:51;2.18;;;1.14;;
43413;SDS011;29013;49.676;8.606;2023-08-31T00:56:16;1.46;;;1.32;;
43413;SDS011;29013;49.676;8.606;2023-08-31T01:01:40;5.38;;;1.45;;
43413;SDS011;29013;49.676;8.606;2023-08-31T01:07:07;2.26;;;1.24;;
43413;SDS011;29013;49.676;8.606;2023-08-31T01:12:32;2.8;;;1.28;;
43413;SDS011;29013;49.676;8.606;2023-08-31T01:17:56;2.33;;;1.48;;
43413;SDS011;29013;49.676;8.606;2023-08-31T01:23:20;2.44;;;1.33;;
43413;SDS011;29013;49.676;8.606;2023-08-31T01:29:05;2.25;;;1.53;;
43413;SDS011;29013;49.676;8.606;2023-08-31T01:34:30;4.34;;;1.59;;
43413;SDS011;29013;49.676;8.606;2023-08-31T01:39:54;2.27;;;1.56;;
43413;SDS011;29013;49.676;8.606;2023-08-31T01:45:17;2.06;;;1.63;;
43413;SDS011;29013;49.676;8.606;2023-08-31T01:50:37;1.86;;;1.27;;
43413;SDS011;29013;49.676;8.606;2023-08-31T01:56:01;1.94;;;1.56;;
43413;SDS011;29013;49.676;8.606;2023-08-31T02:01:26;2.65;;;1.28;;
43413;SDS011;29013;49.676;8.606;2023-08-31T02:07:08;3.88;;;2.0;;
43413;SDS011;29013;49.676;8.606;2023-08-31T02:12:32;2.0;;;1.49;;
43413;SDS011;29013;49.676;8.606;2023-08-31T02:17:54;2.42;;;1.41;;
43413;SDS011;29013;49.676;8.606;2023-08-31T02:23:18;2.87;;;1.87;;
43413;SDS011;29013;49.676;8.606;2023-08-31T02:28:59;2.56;;;1.47;;
43413;SDS011;29013;49.676;8.606;2023-08-31T02:34:23;2.69;;;1.6;;
43413;SDS011;29013;49.676;8.606;2023-08-31T02:39:49;3.07;;;1.43;;
43413;SDS011;29013;49.676;8.606;2023-08-31T02:45:10;1.99;;;1.42;;
43413;SDS011;29013;49.676;8.606;2023-08-31T02:50:59;2.28;;;1.66;;
43413;SDS011;29013;49.676;8.606;2023-08-31T02:56:23;2.43;;;1.55;;
43413;SDS011;29013;49.676;8.606;2023-08-31T03:01:49;1.53;;;1.22;;
43413;SDS011;29013;49.676;8.606;2023-08-31T03:07:13;2.51;;;1.4;;
43413;SDS011;29013;49.676;8.606;2023-08-31T03:12:38;3.33;;;1.82;;
43413;SDS011;29013;49.676;8.606;2023-08-31T03:18:02;2.34;;;1.49;;
43413;SDS011;29013;49.676;8.606;2023-08-31T03:23:41;4.3;;;2.07;;
43413;SDS011;29013;49.676;8.606;2023-08-31T03:29:04;4.72;;;1.87;;
43413;SDS011;29013;49.676;8.606;2023-08-31T03:34:30;2.76;;;1.86;;
43413;SDS011;29013;49.676;8.606;2023-08-31T03:39:52;2.06;;;1.65;;
43413;SDS011;29013;49.676;8.606;2023-08-31T03:45:14;3.81;;;1.83;;
43413;SDS011;29013;49.676;8.606;2023-08-31T03:50:38;3.16;;;1.85;;
43413;SDS011;29013;49.676;8.606;2023-08-31T03:56:03;3.8;;;1.85;;
43413;SDS011;29013;49.676;8.606;2023-08-31T04:01:28;3.27;;;1.91;;
43413;SDS011;29013;49.676;8.606;2023-08-31T04:07:04;3.98;;;2.15;;
43413;SDS011;29013;49.676;8.606;2023-08-31T04:12:25;2.66;;;1.74;;
43413;SDS011;29013;49.676;8.606;2023-08-31T04:17:51;4.71;;;1.77;;
43413;SDS011;29013;49.676;8.606;2023-08-31T04:23:15;3.09;;;2.01;;
43413;SDS011;29013;49.676;8.606;2023-08-31T04:28:38;3.5;;;1.99;;
43413;SDS011;29013;49.676;8.606;2023-08-31T04:34:03;2.3;;;2.02;;
43413;SDS011;29013;49.676;8.606;2023-08-31T04:39:27;4.11;;;2.45;;
43413;SDS011;29013;49.676;8.606;2023-08-31T04:44:50;4.06;;;2.43;;
43413;SDS011;29013;49.676;8.606;2023-08-31T04:50:12;2.81;;;2.22;;
43413;SDS011;29013;49.676;8.606;2023-08-31T04:55:54;4.04;;;2.51;;
43413;SDS011;29013;49.676;8.606;2023-08-31T05:01:20;4.59;;;2.33;;
43413;SDS011;29013;49.676;8.606;2023-08-31T05:06:38;2.34;;;1.95;;
43413;SDS011;29013;49.676;8.606;2023-08-31T05:12:04;4.51;;;2.25;;
43413;SDS011;29013;49.676;8.606;2023-08-31T05:17:28;5.37;;;2.19;;
43413;SDS011;29013;49.676;8.606;2023-08-31T05:22:53;3.49;;;2.15;;
43413;SDS011;29013;49.676;8.606;2023-08-31T05:28:40;4.18;;;2.16;;
43413;SDS011;29013;49.676;8.606;2023-08-31T05:34:04;2.82;;;2.26;;
43413;SDS011;29013;49.676;8.606;2023-08-31T05:39:27;3.64;;;2.11;;
43413;SDS011;29013;49.676;8.606;2023-08-31T05:44:50;3.08;;;2.16;;
43413;SDS011;29013;49.676;8.606;2023-08-31T05:50:12;4.91;;;2.15;;
43413;SDS011;29013;49.676;8.606;2023-08-31T05:55:36;4.55;;;1.85;;
43413;SDS011;29013;49.676;8.606;2023-08-31T06:01:02;2.46;;;1.59;;
43413;SDS011;29013;49.676;8.606;2023-08-31T06:06:24;5.53;;;1.86;;
43413;SDS011;29013;49.676;8.606;2023-08-31T06:11:46;2.43;;;1.75;;
43413;SDS011;29013;49.676;8.606;2023-08-31T06:17:12;3.05;;;2.06;;
43413;SDS011;29013;49.676;8.606;2023-08-31T06:22:37;2.55;;;1.71;;
43413;SDS011;29013;49.676;8.606;2023-08-31T06:28:27;3.52;;;1.92;;
43413;SDS011;29013;49.676;8.606;2023-08-31T06:34:13;2.58;;;1.64;;
43413;SDS011;29013;49.676;8.606;2023-08-31T06:39:35;3.34;;;1.59;;
43413;SDS011;29013;49.676;8.606;2023-08-31T06:45:00;1.69;;;1.44;;
43413;SDS011;29013;49.676;8.606;2023-08-31T06:50:27;2.81;;;1.61;;
43413;SDS011;29013;49.676;8.606;2023-08-31T06:55:51;2.26;;;1.34;;
43413;SDS011;29013;49.676;8.606;2023-08-31T07:01:15;2.57;;;1.26;;
43413;SDS011;29013;49.676;8.606;2023-08-31T07:07:04;3.31;;;1.66;;
43413;SDS011;29013;49.676;8.606;2023-08-31T07:12:27;3.66;;;1.63;;
43413;SDS011;29013;49.676;8.606;2023-08-31T07:17:51;2.89;;;1.67;;
43413;SDS011;29013;49.676;8.606;2023-08-31T07:23:13;2.53;;;1.42;;
43413;SDS011;29013;49.676;8.606;2023-08-31T07:28:38;3.9;;;1.56;;
43413;SDS011;29013;49.676;8.606;2023-08-31T07:34:05;3.45;;;1.71;;
43413;SDS011;29013;49.676;8.606;2023-08-31T07:39:26;1.76;;;1.22;;
43413;SDS011;29013;49.676;8.606;2023-08-31T07:44:50;3.18;;;1.26;;
43413;SDS011;29013;49.676;8.606;2023-08-31T07:50:14;2.19;;;1.48;;
43413;SDS011;29013;49.676;8.606;2023-08-31T07:55:36;2.02;;;1.28;;
43413;SDS011;29013;49.676;8.606;2023-08-31T08:01:00;4.05;;;1.76;;
43413;SDS011;29013;49.676;8.606;2023-08-31T08:06:39;1.92;;;1.34;;
43413;SDS011;29013;49.676;8.606;2023-08-31T08:12:05;2.99;;;1.26;;
43413;SDS011;29013;49.676;8.606;2023-08-31T08:17:29;1.39;;;1.09;;
43413;SDS011;29013;49.676;8.606;2023-08-31T08:22:55;2.14;;;1.2;;
43413;SDS011;29013;49.676;8.606;2023-08-31T08:28:42;3.34;;;1.55;;
43413;SDS011;29013;49.676;8.606;2023-08-31T08:34:07;2.19;;;1.15;;
43413;SDS011;29013;49.676;8.606;2023-08-31T08:39:30;1.64;;;0.7;;
43413;SDS011;29013;49.676;8.606;2023-08-31T08:44:55;1.29;;;0.75;;
43413;SDS011;29013;49.676;8.606;2023-08-31T08:50:38;2.06;;;0.92;;
43413;SDS011;29013;49.676;8.606;2023-08-31T08:56:01;1.64;;;0.55;;
43413;SDS011;29013;49.676;8.606;2023-08-31T09:01:48;1.19;;;0.44;;
43413;SDS011;29013;49.676;8.606;2023-08-31T09:07:13;2.98;;;0.55;;
43413;SDS011;29013;49.676;8.606;2023-08-31T09:12:38;1.58;;;0.57;;
43413;SDS011;29013;49.676;8.606;2023-08-31T09:18:04;2.68;;;0.62;;
43413;SDS011;29013;49.676;8.606;2023-08-31T09:23:27;3.0;;;0.62;;
43413;SDS011;29013;49.676;8.606;2023-08-31T09:28:50;2.78;;;0.5;;
43413;SDS011;29013;49.676;8.606;2023-08-31T09:34:15;1.58;;;0.63;;
43413;SDS011;29013;49.676;8.606;2023-08-31T09:39:36;3.54;;;0.55;;
43413;SDS011;29013;49.676;8.606;2023-08-31T09:45:02;1.04;;;0.31;;
43413;SDS011;29013;49.676;8.606;2023-08-31T09:50:29;3.13;;;1.53;;
43413;SDS011;29013;49.676;8.606;2023-08-31T09:55:48;2.2;;;0.56;;
43413;SDS011;29013;49.676;8.606;2023-08-31T10:01:12;1.1;;;0.57;;
43413;SDS011;29013;49.676;8.606;2023-08-31T10:06:37;0.82;;;0.46;;
43413;SDS011;29013;49.676;8.606;2023-08-31T10:11:59;0.81;;;0.56;;
43413;SDS011;29013;49.676;8.606;2023-08-31T10:17:26;0.6;;;0.47;;
43413;SDS011;29013;49.676;8.606;2023-08-31T10:22:50;0.56;;;0.43;;
43413;SDS011;29013;49.676;8.606;2023-08-31T10:28:19;0.65;;;0.34;;
43413;SDS011;29013;49.676;8.606;2023-08-31T10:33:44;0.64;;;0.52;;
43413;SDS011;29013;49.676;8.606;2023-08-31T10:39:12;1.07;;;0.52;;
43413;SDS011;29013;49.676;8.606;2023-08-31T10:44:53;1.25;;;0.7;;
43413;SDS011;29013;49.676;8.606;2023-08-31T10:50:18;0.71;;;0.37;;
43413;SDS011;29013;49.676;8.606;2023-08-31T10:55:51;0.38;;;0.41;;
43413;SDS011;29013;49.676;8.606;2023-08-31T11:01:13;1.17;;;0.4;;
43413;SDS011;29013;49.676;8.606;2023-08-31T11:06:38;0.45;;;0.33;;
43413;SDS011;29013;49.676;8.606;2023-08-31T11:12:06;0.59;;;0.41;;
43413;SDS011;29013;49.676;8.606;2023-08-31T11:17:29;1.18;;;0.67;;
43413;SDS011;29013;49.676;8.606;2023-08-31T11:22:54;0.71;;;0.57;;
43413;SDS011;29013;49.676;8.606;2023-08-31T11:28:18;2.52;;;0.84;;
43413;SDS011;29013;49.676;8.606;2023-08-31T11:33:43;0.88;;;0.43;;
43413;SDS011;29013;49.676;8.606;2023-08-31T11:39:06;0.59;;;0.47;;
43413;SDS011;29013;49.676;8.606;2023-08-31T11:44:31;0.51;;;0.31;;
43413;SDS011;29013;49.676;8.606;2023-08-31T11:49:57;1.0;;;0.57;;
43413;SDS011;29013;49.676;8.606;2023-08-31T11:55:21;0.7;;;0.61;;
43413;SDS011;29013;49.676;8.606;2023-08-31T12:00:47;3.62;;;0.78;;
43413;SDS011;29013;49.676;8.606;2023-08-31T12:06:16;1.46;;;0.56;;
43413;SDS011;29013;49.676;8.606;2023-08-31T12:11:40;1.86;;;0.82;;
43413;SDS011;29013;49.676;8.606;2023-08-31T12:17:06;0.76;;;0.45;;
43413;SDS011;29013;49.676;8.606;2023-08-31T12:22:31;3.54;;;0.63;;
43413;SDS011;29013;49.676;8.606;2023-08-31T12:27:57;2.11;;;0.77;;
43413;SDS011;29013;49.676;8.606;2023-08-31T12:33:40;2.71;;;0.77;;
43413;SDS011;29013;49.676;8.606;2023-08-31T12:39:05;2.24;;;0.76;;
43413;SDS011;29013;49.676;8.606;2023-08-31T12:44:28;1.34;;;0.67;;
43413;SDS011;29013;49.676;8.606;2023-08-31T12:49:54;2.29;;;0.65;;
43413;SDS011;29013;49.676;8.606;2023-08-31T12:55:35;2.53;;;0.76;;
43413;SDS011;29013;49.676;8.606;2023-08-31T13:01:00;2.51;;;0.62;;
43413;SDS011;29013;49.676;8.606;2023-08-31T13:06:25;3.02;;;0.95;;
43413;SDS011;29013;49.676;8.606;2023-08-31T13:11:50;2.5;;;0.84;;
43413;SDS011;29013;49.676;8.606;2023-08-31T13:17:13;1.79;;;0.94;;
43413;SDS011;29013;49.676;8.606;2023-08-31T13:22:37;1.41;;;0.67;;
43413;SDS011;29013;49.676;8.606;2023-08-31T13:28:03;1.75;;;0.84;;
43413;SDS011;29013;49.676;8.606;2023-08-31T13:33:27;1.33;;;0.9;;
43413;SDS011;29013;49.676;8.606;2023-08-31T13:38:52;1.49;;;0.72;;
43413;SDS011;29013;49.676;8.606;2023-08-31T13:44:16;2.0;;;0.95;;
43413;SDS011;29013;49.676;8.606;2023-08-31T13:49:35;2.54;;;1.18;;
43413;SDS011;29013;49.676;8.606;2023-08-31T13:55:00;4.2;;;0.72;;
43413;SDS011;29013;49.676;8.606;2023-08-31T14:00:25;2.28;;;0.81;;
43413;SDS011;29013;49.676;8.606;2023-08-31T14:05:51;1.85;;;0.74;;
43413;SDS011;29013;49.676;8.606;2023-08-31T14:11:15;2.16;;;0.73;;
43413;SDS011;29013;49.676;8.606;2023-08-31T14:16:39;1.29;;;1.01;;
43413;SDS011;29013;49.676;8.606;2023-08-31T14:22:04;3.18;;;0.93;;
43413;SDS011;29013;49.676;8.606;2023-08-31T14:27:30;2.69;;;0.79;;
43413;SDS011;29013;49.676;8.606;2023-08-31T14:32:53;2.24;;;0.93;;
43413;SDS011;29013;49.676;8.606;2023-08-31T14:38:17;1.28;;;0.72;;
43413;SDS011;29013;49.676;8.606;2023-08-31T14:43:42;1.66;;;0.54;;
43413;SDS011;29013;49.676;8.606;2023-08-31T14:49:07;0.76;;;0.7;;
43413;SDS011;29013;49.676;8.606;2023-08-31T14:54:33;2.67;;;0.58;;
43413;SDS011;29013;49.676;8.606;2023-08-31T14:59:59;1.61;;;0.75;;
43413;SDS011;29013;49.676;8.606;2023-08-31T15:05:24;1.46;;;0.55;;
43413;SDS011;29013;49.676;8.606;2023-08-31T15:10:50;1.27;;;0.8;;
43413;SDS011;29013;49.676;8.606;2023-08-31T15:16:16;0.78;;;0.67;;
43413;SDS011;29013;49.676;8.606;2023-08-31T15:21:41;3.53;;;0.72;;
43413;SDS011;29013;49.676;8.606;2023-08-31T15:27:06;1.97;;;0.81;;
43413;SDS011;29013;49.676;8.606;2023-08-31T15:32:30;2.04;;;0.61;;
43413;SDS011;29013;49.676;8.606;2023-08-31T15:37:57;1.17;;;0.6;;
43413;SDS011;29013;49.676;8.606;2023-08-31T15:43:36;1.68;;;0.8;;
43413;SDS011;29013;49.676;8.606;2023-08-31T15:49:00;1.99;;;0.77;;
43413;SDS011;29013;49.676;8.606;2023-08-31T15:54:27;1.08;;;0.67;;
43413;SDS011;29013;49.676;8.606;2023-08-31T15:59:51;2.99;;;0.68;;
43413;SDS011;29013;49.676;8.606;2023-08-31T16:05:16;2.08;;;0.67;;
43413;SDS011;29013;49.676;8.606;2023-08-31T16:10:42;1.94;;;0.74;;
43413;SDS011;29013;49.676;8.606;2023-08-31T16:16:09;2.09;;;0.81;;
43413;SDS011;29013;49.676;8.606;2023-08-31T16:21:50;1.89;;;0.79;;
43413;SDS011;29013;49.676;8.606;2023-08-31T16:27:14;2.5;;;0.58;;
43413;SDS011;29013;49.676;8.606;2023-08-31T16:33:00;1.62;;;0.66;;
43413;SDS011;29013;49.676;8.606;2023-08-31T16:38:25;2.99;;;1.01;;
43413;SDS011;29013;49.676;8.606;2023-08-31T16:43:50;1.95;;;0.98;;
43413;SDS011;29013;49.676;8.606;2023-08-31T16:49:16;2.52;;;0.92;;
43413;SDS011;29013;49.676;8.606;2023-08-31T16:54:40;1.57;;;0.93;;
43413;SDS011;29013;49.676;8.606;2023-08-31T17:00:06;1.51;;;0.76;;
43413;SDS011;29013;49.676;8.606;2023-08-31T17:05:28;2.84;;;0.83;;
43413;SDS011;29013;49.676;8.606;2023-08-31T17:10:54;1.63;;;0.71;;
43413;SDS011;29013;49.676;8.606;2023-08-31T17:16:14;1.77;;;1.0;;
43413;SDS011;29013;49.676;8.606;2023-08-31T17:21:39;3.21;;;1.0;;
43413;SDS011;29013;49.676;8.606;2023-08-31T17:27:04;1.68;;;0.72;;
43413;SDS011;29013;49.676;8.606;2023-08-31T17:32:30;1.23;;;0.83;;
43413;SDS011;29013;49.676;8.606;2023-08-31T17:37:53;2.17;;;0.87;;
43413;SDS011;29013;49.676;8.606;2023-08-31T17:43:19;2.26;;;0.86;;
43413;SDS011;29013;49.676;8.606;2023-08-31T17:48:42;2.16;;;0.85;;
43413;SDS011;29013;49.676;8.606;2023-08-31T17:54:05;3.57;;;0.84;;
43413;SDS011;29013;49.676;8.606;2023-08-31T17:59:30;3.04;;;0.66;;
43413;SDS011;29013;49.676;8.606;2023-08-31T18:04:55;1.15;;;0.74;;
43413;SDS011;29013;49.676;8.606;2023-08-31T18:10:18;5.08;;;0.67;;
43413;SDS011;29013;49.676;8.606;2023-08-31T18:15:46;1.72;;;0.73;;
43413;SDS011;29013;49.676;8.606;2023-08-31T18:21:07;2.17;;;0.87;;
43413;SDS011;29013;49.676;8.606;2023-08-31T18:26:32;1.45;;;0.73;;
43413;SDS011;29013;49.676;8.606;2023-08-31T18:32:17;1.56;;;0.89;;
43413;SDS011;29013;49.676;8.606;2023-08-31T18:37:59;3.55;;;0.95;;
43413;SDS011;29013;49.676;8.606;2023-08-31T18:43:21;3.25;;;1.18;;
43413;SDS011;29013;49.676;8.606;2023-08-31T18:48:45;2.51;;;0.76;;
43413;SDS011;29013;49.676;8.606;2023-08-31T18:54:10;4.07;;;0.67;;
43413;SDS011;29013;49.676;8.606;2023-08-31T18:59:35;1.85;;;0.68;;
43413;SDS011;29013;49.676;8.606;2023-08-31T19:04:57;3.11;;;0.87;;
43413;SDS011;29013;49.676;8.606;2023-08-31T19:10:23;1.71;;;0.96;;
43413;SDS011;29013;49.676;8.606;2023-08-31T19:15:48;1.59;;;0.86;;
43413;SDS011;29013;49.676;8.606;2023-08-31T19:21:13;1.87;;;0.84;;
43413;SDS011;29013;49.676;8.606;2023-08-31T19:26:38;2.94;;;0.87;;
43413;SDS011;29013;49.676;8.606;2023-08-31T19:32:01;6.32;;;1.15;;
43413;SDS011;29013;49.676;8.606;2023-08-31T19:37:50;4.7;;;1.37;;
43413;SDS011;29013;49.676;8.606;2023-08-31T19:43:12;1.49;;;1.06;;
43413;SDS011;29013;49.676;8.606;2023-08-31T19:48:36;2.48;;;1.21;;
43413;SDS011;29013;49.676;8.606;2023-08-31T19:54:00;4.07;;;1.21;;
43413;SDS011;29013;49.676;8.606;2023-08-31T19:59:24;2.37;;;1.17;;
43413;SDS011;29013;49.676;8.606;2023-08-31T20:04:49;3.99;;;1.29;;
43413;SDS011;29013;49.676;8.606;2023-08-31T20:10:14;2.75;;;1.27;;
43413;SDS011;29013;49.676;8.606;2023-08-31T20:15:39;1.92;;;1.25;;
43413;SDS011;29013;49.676;8.606;2023-08-31T20:21:04;3.09;;;1.08;;
43413;SDS011;29013;49.676;8.606;2023-08-31T20:26:25;1.75;;;0.9;;
43413;SDS011;29013;49.676;8.606;2023-08-31T20:31:51;2.54;;;1.45;;
43413;SDS011;29013;49.676;8.606;2023-08-31T20:37:15;2.62;;;1.11;;
43413;SDS011;29013;49.676;8.606;2023-08-31T20:42:36;3.32;;;1.32;;
43413;SDS011;29013;49.676;8.606;2023-08-31T20:48:03;2.57;;;1.11;;
43413;SDS011;29013;49.676;8.606;2023-08-31T20:53:43;3.19;;;1.23;;
43413;SDS011;29013;49.676;8.606;2023-08-31T20:59:08;2.89;;;1.17;;
43413;SDS011;29013;49.676;8.606;2023-08-31T21:04:32;3.11;;;1.36;;
43413;SDS011;29013;49.676;8.606;2023-08-31T21:09:56;1.86;;;1.33;;
43413;SDS011;29013;49.676;8.606;2023-08-31T21:15:20;3.3;;;1.39;;
43413;SDS011;29013;49.676;8.606;2023-08-31T21:20:46;2.44;;;1.35;;
43413;SDS011;29013;49.676;8.606;2023-08-31T21:26:10;1.75;;;1.26;;
43413;SDS011;29013;49.676;8.606;2023-08-31T21:31:33;1.98;;;1.16;;
43413;SDS011;29013;49.676;8.606;2023-08-31T21:36:56;2.21;;;1.05;;
43413;SDS011;29013;49.676;8.606;2023-08-31T21:42:19;2.1;;;1.07;;
43413;SDS011;29013;49.676;8.606;2023-08-31T21:47:44;2.58;;;1.41;;
43413;SDS011;29013;49.676;8.606;2023-08-31T21:53:09;2.03;;;1.25;;
43413;SDS011;29013;49.676;8.606;2023-08-31T21:58:34;2.87;;;1.49;;
43413;SDS011;29013;49.676;8.606;2023-08-31T22:03:58;2.76;;;1.7;;
43413;SDS011;29013;49.676;8.606;2023-08-31T22:09:20;3.16;;;1.54;;
43413;SDS011;29013;49.676;8.606;2023-08-31T22:14:44;6.34;;;1.4;;
43413;SDS011;29013;49.676;8.606;2023-08-31T22:20:09;3.32;;;1.7;;
43413;SDS011;29013;49.676;8.606;2023-08-31T22:25:32;1.93;;;1.14;;
43413;SDS011;29013;49.676;8.606;2023-08-31T22:30:57;2.43;;;1.28;;
43413;SDS011;29013;49.676;8.606;2023-08-31T22:36:19;3.1;;;1.52;;
43413;SDS011;29013;49.676;8.606;2023-08-31T22:41:42;2.91;;;1.08;;
43413;SDS011;29013;49.676;8.606;2023-08-31T22:47:06;3.55;;;1.38;;
43413;SDS011;29013;49.676;8.606;2023-08-31T22:52:30;1.2;;;0.92;;
43413;SDS011;29013;49.676;8.606;2023-08-31T22:57:54;2.22;;;1.02;;
43413;SDS011;29013;49.676;8.606;2023-08-31T23:03:19;3.98;;;1.06;;
43413;SDS011;29013;49.676;8.606;2023-08-31T23:08:44;2.57;;;0.94;;
43413;SDS011;29013;49.676;8.606;2023-08-31T23:14:07;2.04;;;1.25;;
43413;SDS011;29013;49.676;8.606;2023-08-31T23:19:32;1.14;;;0.95;;
43413;SDS011;29013;49.676;8.606;2023-08-31T23:24:55;1.49;;;0.92;;
43413;SDS011;29013;49.676;8.606;2023-08-31T23:30:46;1.52;;;0.92;;
43413;SDS011;29013;49.676;8.606;2023-08-31T23:36:09;1.75;;;1.03;;
43413;SDS011;29013;49.676;8.606;2023-08-31T23:41:34;2.91;;;0.74;;
43413;SDS011;29013;49.676;8.606;2023-08-31T23:46:57;2.55;;;0.89;;
43413;SDS011;29013;49.676;8.606;2023-08-31T23:52:19;2.02;;;0.78;;
43413;SDS011;29013;49.676;8.606;2023-08-31T23:57:41;1.07;;;0.78;;
